Time;durP1;ratioP1;P1;durP2;ratioP2;P2;SDS_P1;SDS_P2;PMS_P1;PMS_P2;Temp;Humidity;BMP_temperature;BMP_pressure;BME280_temperature;BME280_humidity;BME280_pressure;Samples;Min_cycle;Max_cycle;Signal;HPM_P1;HPM_P2
2022/07/24 00:02:13;;;;;;;;;;;28.40;61.20;;;;;;5075564;28;19915;-61
2022/07/24 00:04:38;;;;;;;;;;;28.40;59.70;;;;;;5075399;28;19916;-61
2022/07/24 00:07:04;;;;;;;;;;;28.20;61.10;;;;;;5075302;28;19912;-60
2022/07/24 00:09:29;;;;;;;;;;;28.10;60.20;;;;;;5075386;28;20275;-61
2022/07/24 00:11:55;;;;;;;;;;;28.30;59.00;;;;;;5075253;28;19915;-61
2022/07/24 00:14:21;;;;;;;;;;;28.30;59.20;;;;;;5075345;28;19916;-61
2022/07/24 00:16:46;;;;;;;;;;;28.30;60.80;;;;;;5074904;28;20330;-61
2022/07/24 00:19:12;;;;;;;;;;;28.30;59.90;;;;;;5075205;28;19915;-61
2022/07/24 00:21:37;;;;;;;;;;;28.30;59.00;;;;;;5075261;28;19960;-61
2022/07/24 00:24:03;;;;;;;;;;;28.40;58.80;;;;;;5075031;28;19909;-61
2022/07/24 00:26:28;;;;;;;;;;;28.40;58.90;;;;;;5074965;28;19976;-61
2022/07/24 00:28:54;;;;;;;;;;;28.40;58.40;;;;;;5075103;28;20007;-61
2022/07/24 00:31:20;;;;;;;;;;;28.20;58.80;;;;;;5074983;28;19955;-61
2022/07/24 00:33:46;;;;;;;;;;;28.20;59.00;;;;;;5073633;28;19920;-62
2022/07/24 00:36:11;;;;;;;;;;;28.20;59.60;;;;;;5074957;28;20350;-62
2022/07/24 00:38:37;;;;;;;;;;;28.20;59.20;;;;;;5074919;28;20011;-62
2022/07/24 00:41:02;;;;;;;;;;;28.10;58.50;;;;;;5079448;28;20276;-62
2022/07/24 00:43:28;;;;;;;;;;;28.10;58.20;;;;;;5090251;28;19912;-61
2022/07/24 00:45:54;;;;;;;;;;;28.10;57.80;;;;;;5074864;28;19908;-61
2022/07/24 00:48:19;;;;;;;;;;;28.10;57.20;;;;;;5074323;28;19954;-62
2022/07/24 00:50:45;;;;;;;;;;;28.10;56.10;;;;;;5074685;28;20410;-61
2022/07/24 00:53:10;;;;;;;;;;;28.20;55.40;;;;;;5074620;28;20462;-62
2022/07/24 00:55:37;;;;;;;;;;;28.20;54.70;;;;;;5074384;28;19922;-61
2022/07/24 00:58:02;;;;;;;;;;;28.10;54.00;;;;;;5074518;28;19948;-62
2022/07/24 01:00:28;;;;;;;;;;;28.20;53.30;;;;;;5074474;28;19974;-62
2022/07/24 01:02:53;;;;;;;;;;;28.20;52.30;;;;;;5075120;28;19908;-62
2022/07/24 01:05:19;;;;;;;;;;;28.10;51.30;;;;;;5074408;28;19913;-61
2022/07/24 01:07:45;;;;;;;;;;;28.10;51.80;;;;;;5074219;28;19909;-62
2022/07/24 01:10:10;;;;;;;;;;;28.00;51.90;;;;;;5074246;28;19908;-62
2022/07/24 01:12:37;;;;;;;;;;;28.10;51.70;;;;;;5074340;28;19931;-62
2022/07/24 01:15:04;;;;;;;;;;;28.10;51.70;;;;;;5073965;28;20376;-61
2022/07/24 01:17:30;;;;;;;;;;;28.10;50.70;;;;;;5074036;28;19929;-61
2022/07/24 01:19:56;;;;;;;;;;;28.10;50.50;;;;;;5074074;28;19924;-61
2022/07/24 01:22:21;;;;;;;;;;;28.20;49.50;;;;;;5074041;28;19917;-61
2022/07/24 01:24:48;;;;;;;;;;;28.10;49.30;;;;;;5073797;28;19908;-61
2022/07/24 01:27:14;;;;;;;;;;;28.00;48.70;;;;;;5073833;28;20025;-62
2022/07/24 01:29:39;;;;;;;;;;;28.00;47.40;;;;;;5073943;28;20441;-62
2022/07/24 01:32:05;;;;;;;;;;;28.00;47.10;;;;;;5073723;28;20031;-62
2022/07/24 01:34:30;;;;;;;;;;;27.90;46.40;;;;;;5074173;28;20007;-61
2022/07/24 01:36:56;;;;;;;;;;;27.90;46.00;;;;;;5073484;28;19924;-61
2022/07/24 01:39:22;;;;;;;;;;;27.90;45.50;;;;;;5073627;28;20291;-62
2022/07/24 01:41:47;;;;;;;;;;;27.90;44.70;;;;;;5084526;28;19965;-61
2022/07/24 01:44:13;;;;;;;;;;;28.00;44.50;;;;;;5076585;28;19923;-62
2022/07/24 01:46:39;;;;;;;;;;;28.00;44.30;;;;;;5073623;28;19912;-63
2022/07/24 01:49:04;;;;;;;;;;;28.00;44.20;;;;;;5073435;28;19908;-62
2022/07/24 01:51:30;;;;;;;;;;;28.00;44.00;;;;;;5073470;28;20287;-62
2022/07/24 01:53:56;;;;;;;;;;;28.10;43.90;;;;;;5073332;28;19913;-62
2022/07/24 01:56:21;;;;;;;;;;;28.10;43.80;;;;;;5073115;28;19920;-62
2022/07/24 01:58:47;;;;;;;;;;;28.20;44.00;;;;;;5073438;28;20391;-62
2022/07/24 02:01:12;;;;;;;;;;;28.20;43.80;;;;;;5072446;28;19918;-62
2022/07/24 02:03:38;;;;;;;;;;;28.20;43.70;;;;;;5073082;28;19908;-62
2022/07/24 02:06:04;;;;;;;;;;;28.30;43.70;;;;;;5073160;28;19915;-63
2022/07/24 02:08:30;;;;;;;;;;;28.30;43.70;;;;;;5073094;28;19908;-62
2022/07/24 02:10:55;;;;;;;;;;;28.30;43.80;;;;;;5073167;28;19916;-62
2022/07/24 02:13:21;;;;;;;;;;;28.20;43.80;;;;;;5071559;28;20391;-63
2022/07/24 02:15:46;;;;;;;;;;;28.30;43.90;;;;;;5072814;28;19921;-62
2022/07/24 02:18:12;;;;;;;;;;;28.30;43.70;;;;;;5072894;28;20013;-59
2022/07/24 02:20:38;;;;;;;;;;;28.30;43.50;;;;;;5073414;28;19909;-60
2022/07/24 02:23:04;;;;;;;;;;;28.40;43.30;;;;;;5072822;28;19954;-61
2022/07/24 02:25:29;;;;;;;;;;;28.40;43.40;;;;;;5072838;28;20005;-61
2022/07/24 02:27:55;;;;;;;;;;;28.40;43.30;;;;;;5075171;28;19909;-61
2022/07/24 02:30:22;;;;;;;;;;;28.40;43.40;;;;;;5079604;28;20413;-62
2022/07/24 02:32:48;;;;;;;;;;;28.50;43.20;;;;;;5073230;28;20414;-61
2022/07/24 02:35:13;;;;;;;;;;;28.50;43.10;;;;;;5072755;28;19921;-61
2022/07/24 02:37:40;;;;;;;;;;;28.50;43.30;;;;;;5072563;28;19920;-62
2022/07/24 02:40:07;;;;;;;;;;;28.50;43.10;;;;;;5072403;28;19912;-62
2022/07/24 02:42:33;;;;;;;;;;;28.40;43.20;;;;;;5086758;28;19959;-62
2022/07/24 02:44:59;;;;;;;;;;;28.40;43.40;;;;;;5072534;28;19951;-61
2022/07/24 02:47:24;;;;;;;;;;;28.40;43.60;;;;;;5072415;28;19978;-62
2022/07/24 02:49:50;;;;;;;;;;;28.40;43.40;;;;;;5072851;28;19908;-62
2022/07/24 02:52:15;;;;;;;;;;;28.50;43.40;;;;;;5072484;28;19951;-61
2022/07/24 02:54:41;;;;;;;;;;;28.50;43.50;;;;;;5072148;28;19919;-62
2022/07/24 02:57:06;;;;;;;;;;;28.50;43.40;;;;;;5072400;28;19924;-62
2022/07/24 02:59:32;;;;;;;;;;;28.50;43.70;;;;;;5072150;28;20376;-62
2022/07/24 03:01:57;;;;;;;;;;;28.60;43.80;;;;;;5072318;28;19944;-62
2022/07/24 03:04:23;;;;;;;;;;;28.60;43.90;;;;;;5072093;28;19962;-62
2022/07/24 03:06:48;;;;;;;;;;;28.50;44.10;;;;;;5072240;28;19913;-62
2022/07/24 03:09:14;;;;;;;;;;;28.40;44.50;;;;;;5072151;28;19909;-61
2022/07/24 03:11:40;;;;;;;;;;;28.40;44.60;;;;;;5071935;28;19908;-62
2022/07/24 03:14:05;;;;;;;;;;;28.40;44.90;;;;;;5083019;28;19912;-61
2022/07/24 03:16:31;;;;;;;;;;;28.30;45.10;;;;;;5075064;28;19928;-61
2022/07/24 03:18:57;;;;;;;;;;;28.30;45.20;;;;;;5072128;28;19912;-62
2022/07/24 03:21:23;;;;;;;;;;;28.30;45.40;;;;;;5071999;28;20280;-62
2022/07/24 03:23:48;;;;;;;;;;;28.30;45.40;;;;;;5072053;28;19913;-62
2022/07/24 03:26:14;;;;;;;;;;;28.30;45.40;;;;;;5072050;28;20461;-61
2022/07/24 03:28:39;;;;;;;;;;;28.30;46.10;;;;;;5072021;28;20395;-62
2022/07/24 03:31:05;;;;;;;;;;;28.20;45.70;;;;;;5072039;28;19913;-62
2022/07/24 03:33:31;;;;;;;;;;;28.20;45.90;;;;;;5071770;28;20289;-62
2022/07/24 03:35:56;;;;;;;;;;;28.30;46.00;;;;;;5071903;28;19920;-62
2022/07/24 03:38:22;;;;;;;;;;;28.30;46.20;;;;;;5071691;28;19916;-62
2022/07/24 03:40:47;;;;;;;;;;;28.30;46.30;;;;;;5074498;28;19909;-62
2022/07/24 03:43:13;;;;;;;;;;;28.30;46.30;;;;;;5083368;28;19966;-62
2022/07/24 03:45:39;;;;;;;;;;;28.30;46.10;;;;;;5071879;28;19908;-61
2022/07/24 03:48:04;;;;;;;;;;;28.30;46.30;;;;;;5072056;28;19999;-62
2022/07/24 03:50:30;;;;;;;;;;;28.20;46.50;;;;;;5071919;28;20011;-62
2022/07/24 03:52:56;;;;;;;;;;;28.30;46.60;;;;;;5071603;28;19912;-62
2022/07/24 03:55:21;;;;;;;;;;;28.20;46.70;;;;;;5071677;28;19912;-62
2022/07/24 03:57:47;;;;;;;;;;;28.30;46.80;;;;;;5071682;28;19919;-62
2022/07/24 04:00:12;;;;;;;;;;;28.20;47.30;;;;;;5071826;28;19909;-62
2022/07/24 04:02:38;;;;;;;;;;;28.10;47.80;;;;;;5071522;28;19909;-62
2022/07/24 04:05:08;;;;;;;;;;;28.10;47.90;;;;;;5071676;28;19912;-61
2022/07/24 04:07:34;;;;;;;;;;;28.10;48.20;;;;;;5071516;28;19999;-61
2022/07/24 04:09:59;;;;;;;;;;;28.20;48.60;;;;;;5071572;28;20456;-62
2022/07/24 04:12:25;;;;;;;;;;;28.10;49.00;;;;;;5071651;28;20007;-61
2022/07/24 04:14:50;;;;;;;;;;;28.00;49.30;;;;;;5071596;28;20399;-62
2022/07/24 04:17:16;;;;;;;;;;;27.90;49.80;;;;;;5073960;28;19927;-61
2022/07/24 04:19:42;;;;;;;;;;;27.90;50.30;;;;;;5073659;28;20282;-62
2022/07/24 04:22:07;;;;;;;;;;;27.90;50.30;;;;;;5071705;28;19912;-61
2022/07/24 04:24:33;;;;;;;;;;;27.90;50.60;;;;;;5074218;28;19912;-61
2022/07/24 04:26:58;;;;;;;;;;;27.90;50.80;;;;;;5075178;28;19987;-62
2022/07/24 04:29:24;;;;;;;;;;;27.80;51.00;;;;;;5075152;28;19957;-62
2022/07/24 04:31:49;;;;;;;;;;;27.70;51.30;;;;;;5075041;28;19916;-62
2022/07/24 04:34:15;;;;;;;;;;;27.70;51.40;;;;;;5075119;28;19958;-62
2022/07/24 04:36:40;;;;;;;;;;;27.60;51.70;;;;;;5073421;28;19917;-62
2022/07/24 04:39:06;;;;;;;;;;;27.60;51.70;;;;;;5075180;28;19919;-62
2022/07/24 04:41:32;;;;;;;;;;;27.50;51.90;;;;;;5083546;28;20283;-62
2022/07/24 04:43:57;;;;;;;;;;;27.60;51.90;;;;;;5080244;28;19909;-62
2022/07/24 04:46:23;;;;;;;;;;;27.70;51.80;;;;;;5074814;28;20287;-61
2022/07/24 04:48:48;;;;;;;;;;;27.60;52.00;;;;;;5074901;28;20337;-62
2022/07/24 04:51:14;;;;;;;;;;;27.60;52.00;;;;;;5074557;28;19917;-62
2022/07/24 04:53:40;;;;;;;;;;;27.60;52.00;;;;;;5074502;28;19919;-62
2022/07/24 04:56:05;;;;;;;;;;;27.60;52.10;;;;;;5074420;28;19971;-62
2022/07/24 04:58:31;;;;;;;;;;;27.50;52.20;;;;;;5074485;28;19920;-62
2022/07/24 05:00:56;;;;;;;;;;;27.40;52.50;;;;;;5074422;28;20070;-62
2022/07/24 05:03:22;;;;;;;;;;;27.50;52.20;;;;;;5074427;28;19916;-62
2022/07/24 05:05:47;;;;;;;;;;;27.50;52.20;;;;;;5073051;28;19908;-62
2022/07/24 05:08:13;;;;;;;;;;;27.40;52.60;;;;;;5074325;28;20002;-64
2022/07/24 05:10:38;;;;;;;;;;;27.50;52.60;;;;;;5073165;28;19915;-62
2022/07/24 05:13:04;;;;;;;;;;;27.60;52.40;;;;;;5074212;28;19913;-62
2022/07/24 05:15:30;;;;;;;;;;;27.70;52.00;;;;;;5074131;28;19918;-62
2022/07/24 05:17:56;;;;;;;;;;;27.80;51.80;;;;;;5074166;28;19909;-62
2022/07/24 05:20:21;;;;;;;;;;;27.70;51.90;;;;;;5074061;28;20436;-61
2022/07/24 05:22:47;;;;;;;;;;;27.70;52.10;;;;;;5073843;28;19912;-62
2022/07/24 05:25:12;;;;;;;;;;;27.80;51.80;;;;;;5074325;28;20260;-61
2022/07/24 05:27:38;;;;;;;;;;;27.80;51.30;;;;;;5074022;28;19912;-62
2022/07/24 05:30:04;;;;;;;;;;;27.90;51.30;;;;;;5073929;28;20337;-62
2022/07/24 05:32:30;;;;;;;;;;;27.80;51.20;;;;;;5073902;28;19923;-62
2022/07/24 05:34:55;;;;;;;;;;;28.00;51.10;;;;;;5073677;28;19913;-62
2022/07/24 05:37:21;;;;;;;;;;;28.00;50.90;;;;;;5073762;28;19924;-61
2022/07/24 05:39:46;;;;;;;;;;;28.00;51.00;;;;;;5073873;28;20417;-60
2022/07/24 05:42:12;;;;;;;;;;;28.10;50.70;;;;;;5087763;28;19908;-60
2022/07/24 05:44:38;;;;;;;;;;;28.10;50.60;;;;;;5073518;28;19913;-58
2022/07/24 05:47:04;;;;;;;;;;;28.00;50.60;;;;;;5073510;28;19998;-59
2022/07/24 05:49:30;;;;;;;;;;;28.10;50.80;;;;;;5073798;28;19948;-62
2022/07/24 05:51:55;;;;;;;;;;;28.10;50.70;;;;;;5073568;28;20007;-61
2022/07/24 05:54:21;;;;;;;;;;;28.20;50.70;;;;;;5073517;28;19924;-62
2022/07/24 05:56:46;;;;;;;;;;;28.20;50.60;;;;;;5073399;28;19946;-69
2022/07/24 05:59:12;;;;;;;;;;;28.40;50.40;;;;;;5073188;28;19908;-67
2022/07/24 06:01:38;;;;;;;;;;;28.50;50.20;;;;;;5073550;28;19912;-72
2022/07/24 06:04:03;;;;;;;;;;;28.60;50.10;;;;;;5073164;28;20007;-67
2022/07/24 06:06:29;;;;;;;;;;;28.80;49.60;;;;;;5074803;28;20271;-68
2022/07/24 06:08:54;;;;;;;;;;;29.00;49.10;;;;;;5082062;28;19999;-73
2022/07/24 06:11:22;;;;;;;;;;;28.90;49.40;;;;;;5087633;28;19908;-66
2022/07/24 06:13:48;;;;;;;;;;;29.00;49.10;;;;;;5088871;28;19961;-66
2022/07/24 06:16:13;;;;;;;;;;;29.10;48.90;;;;;;5091129;28;19928;-66
2022/07/24 06:18:39;;;;;;;;;;;29.30;48.70;;;;;;5089651;28;19914;-68
2022/07/24 06:21:04;;;;;;;;;;;29.50;48.00;;;;;;5090587;28;19919;-67
2022/07/24 06:23:30;;;;;;;;;;;29.60;47.60;;;;;;5091218;28;19961;-68
2022/07/24 06:25:56;;;;;;;;;;;29.60;47.40;;;;;;5091072;28;19908;-67
2022/07/24 06:28:21;;;;;;;;;;;29.70;47.20;;;;;;5090099;28;19973;-67
2022/07/24 06:30:47;;;;;;;;;;;29.80;47.10;;;;;;5072664;28;19912;-64
2022/07/24 06:33:12;;;;;;;;;;;29.90;46.90;;;;;;5085956;28;19995;-68
2022/07/24 06:35:38;;;;;;;;;;;29.90;46.60;;;;;;5072962;28;19913;-72
2022/07/24 06:38:03;;;;;;;;;;;29.90;46.70;;;;;;5074266;28;19920;-65
2022/07/24 06:40:29;;;;;;;;;;;29.90;46.80;;;;;;5077044;28;19971;-67
2022/07/24 06:42:54;;;;;;;;;;;30.00;47.20;;;;;;5079251;28;19923;-61
2022/07/24 06:45:20;;;;;;;;;;;30.00;46.40;;;;;;5086840;28;20368;-67
2022/07/24 06:47:46;;;;;;;;;;;30.00;46.50;;;;;;5076108;28;19915;-61
2022/07/24 06:50:12;;;;;;;;;;;30.10;46.60;;;;;;5091212;28;20408;-66
2022/07/24 06:52:37;;;;;;;;;;;30.30;46.10;;;;;;5087395;28;19912;-69
2022/07/24 06:55:03;;;;;;;;;;;30.30;46.10;;;;;;5071177;28;20394;-67
2022/07/24 06:57:29;;;;;;;;;;;30.20;46.30;;;;;;5071357;28;19921;-67
2022/07/24 06:59:55;;;;;;;;;;;30.10;46.40;;;;;;5091894;28;19916;-66
2022/07/24 07:02:21;;;;;;;;;;;30.10;46.70;;;;;;5072175;28;19908;-63
2022/07/24 07:04:47;;;;;;;;;;;30.10;46.90;;;;;;5085892;28;19919;-66
2022/07/24 07:07:13;;;;;;;;;;;30.20;47.50;;;;;;5072233;28;19913;-67
2022/07/24 07:09:39;;;;;;;;;;;30.20;46.90;;;;;;5086014;28;19916;-67
2022/07/24 07:12:05;;;;;;;;;;;30.50;46.20;;;;;;5072343;28;20275;-66
2022/07/24 07:14:30;;;;;;;;;;;30.60;46.00;;;;;;5084886;28;20344;-68
2022/07/24 07:16:56;;;;;;;;;;;30.80;45.30;;;;;;5072772;28;20395;-67
2022/07/24 07:19:21;;;;;;;;;;;31.00;45.00;;;;;;5082242;28;19916;-69
2022/07/24 07:21:47;;;;;;;;;;;31.10;45.00;;;;;;5075783;28;19908;-67
2022/07/24 07:24:12;;;;;;;;;;;31.20;44.60;;;;;;5072168;28;19908;-64
2022/07/24 07:26:38;;;;;;;;;;;31.30;44.70;;;;;;5071063;28;19923;-62
2022/07/24 07:29:03;;;;;;;;;;;31.30;44.60;;;;;;5070997;28;20435;-63
2022/07/24 07:31:29;;;;;;;;;;;31.30;44.30;;;;;;5069508;28;19958;-63
2022/07/24 07:33:56;;;;;;;;;;;31.30;44.40;;;;;;5070955;28;19912;-63
2022/07/24 07:36:21;;;;;;;;;;;31.40;44.10;;;;;;5070696;28;19920;-63
2022/07/24 07:38:47;;;;;;;;;;;31.40;44.30;;;;;;5071941;28;19909;-62
2022/07/24 07:41:12;;;;;;;;;;;31.50;44.20;;;;;;5077897;28;19933;-68
2022/07/24 07:43:38;;;;;;;;;;;31.30;43.80;;;;;;5078731;28;19988;-67
2022/07/24 07:46:05;;;;;;;;;;;31.30;44.70;;;;;;5070418;28;19915;-65
2022/07/24 07:48:30;;;;;;;;;;;31.50;43.80;;;;;;5070263;28;19912;-70
2022/07/24 07:50:56;;;;;;;;;;;31.50;43.90;;;;;;5070803;28;20360;-63
2022/07/24 07:53:22;;;;;;;;;;;31.70;42.70;;;;;;5070626;28;19967;-63
2022/07/24 07:55:51;;;;;;;;;;;31.90;42.50;;;;;;5080847;28;19908;-64
2022/07/24 07:58:17;;;;;;;;;;;32.10;41.80;;;;;;5075327;28;19919;-60
2022/07/24 08:00:43;;;;;;;;;;;32.10;41.20;;;;;;5074380;28;19909;-60
2022/07/24 08:03:09;;;;;;;;;;;32.10;41.60;;;;;;5074652;28;19916;-59
2022/07/24 08:05:34;;;;;;;;;;;31.90;41.40;;;;;;5074757;28;19927;-58
2022/07/24 08:08:00;;;;;;;;;;;32.20;41.50;;;;;;5075566;28;19947;-62
2022/07/24 08:10:26;;;;;;;;;;;32.20;41.80;;;;;;5075361;28;19908;-61
2022/07/24 08:12:51;;;;;;;;;;;32.20;41.00;;;;;;5075449;28;19919;-61
2022/07/24 08:15:17;;;;;;;;;;;32.20;41.10;;;;;;5065004;28;19963;-62
2022/07/24 08:17:43;;;;;;;;;;;32.10;41.40;;;;;;5071963;28;19950;-61
2022/07/24 08:20:09;;;;;;;;;;;32.20;41.30;;;;;;5073728;28;19909;-61
2022/07/24 08:22:34;;;;;;;;;;;32.30;41.20;;;;;;5074989;28;19912;-60
2022/07/24 08:25:00;;;;;;;;;;;32.30;41.20;;;;;;5075052;28;19909;-60
2022/07/24 08:27:25;;;;;;;;;;;32.40;40.70;;;;;;5073207;28;19912;-61
2022/07/24 08:29:51;;;;;;;;;;;32.60;40.50;;;;;;5093732;28;20295;-62
2022/07/24 08:32:17;;;;;;;;;;;32.70;40.30;;;;;;5086244;28;20276;-62
2022/07/24 08:34:42;;;;;;;;;;;32.80;40.00;;;;;;5073848;28;19912;-62
2022/07/24 08:37:08;;;;;;;;;;;32.80;40.20;;;;;;5073118;28;19968;-64
2022/07/24 08:39:33;;;;;;;;;;;32.80;40.20;;;;;;5073728;28;19962;-62
2022/07/24 08:41:59;;;;;;;;;;;32.90;40.10;;;;;;5085709;28;19908;-61
2022/07/24 08:44:24;;;;;;;;;;;32.90;39.90;;;;;;5090484;28;20337;-61
2022/07/24 08:46:52;;;;;;;;;;;32.50;40.50;;;;;;5078011;28;19916;-60
2022/07/24 08:49:19;;;;;;;;;;;32.70;40.60;;;;;;5073601;28;20392;-60
2022/07/24 08:51:45;;;;;;;;;;;32.70;40.30;;;;;;5073594;28;19919;-62
2022/07/24 08:54:10;;;;;;;;;;;32.80;40.50;;;;;;5093291;28;19912;-63
2022/07/24 08:56:39;;;;;;;;;;;32.90;39.50;;;;;;5093693;28;19916;-60
2022/07/24 08:59:05;;;;;;;;;;;32.80;40.10;;;;;;5078099;28;19954;-60
2022/07/24 09:01:30;;;;;;;;;;;32.80;39.80;;;;;;5074496;28;19912;-60
2022/07/24 09:03:56;;;;;;;;;;;32.80;40.10;;;;;;5074265;28;19959;-60
2022/07/24 09:06:22;;;;;;;;;;;32.90;39.90;;;;;;5073305;28;20007;-61
2022/07/24 09:09:02;;;;;;;;;;;33.00;39.80;;;;;;5073941;28;20449;-61
2022/07/24 09:11:29;;;;;;;;;;;33.20;39.20;;;;;;5074105;28;19909;-61
2022/07/24 09:16:45;;;;;;;;;;;33.10;39.20;;;;;;5061468;28;20395;-60
2022/07/24 09:19:13;;;;;;;;;;;33.10;39.10;;;;;;5074232;28;19919;-60
2022/07/24 09:21:39;;;;;;;;;;;33.10;38.60;;;;;;5074055;28;19923;-61
2022/07/24 09:24:12;;;;;;;;;;;33.10;39.10;;;;;;5073882;28;19916;-58
2022/07/24 09:26:44;;;;;;;;;;;33.10;39.30;;;;;;5074973;28;19967;-60
2022/07/24 09:29:11;;;;;;;;;;;33.20;39.30;;;;;;5073848;28;19938;-60
2022/07/24 09:31:52;;;;;;;;;;;33.40;39.50;;;;;;5073907;28;19909;-59
2022/07/24 09:34:17;;;;;;;;;;;33.40;39.30;;;;;;5064870;28;19916;-63
2022/07/24 09:36:54;;;;;;;;;;;33.40;39.60;;;;;;5072561;28;19920;-60
2022/07/24 09:39:20;;;;;;;;;;;33.40;40.10;;;;;;5072840;28;19913;-57
2022/07/24 09:41:53;;;;;;;;;;;33.50;39.80;;;;;;5087846;28;20355;-59
2022/07/24 09:44:19;;;;;;;;;;;33.70;39.90;;;;;;5093034;28;19927;-59
2022/07/24 09:46:46;;;;;;;;;;;33.70;40.10;;;;;;5093304;28;20002;-59
2022/07/24 09:49:18;;;;;;;;;;;33.60;38.80;;;;;;5074197;28;19912;-57
2022/07/24 09:51:44;;;;;;;;;;;33.40;40.00;;;;;;5073643;28;20325;-58
2022/07/24 09:54:10;;;;;;;;;;;33.40;40.40;;;;;;5073258;28;19909;-58
2022/07/24 09:56:35;;;;;;;;;;;33.50;40.20;;;;;;5073546;28;20283;-60
2022/07/24 09:59:07;;;;;;;;;;;33.60;40.10;;;;;;5074199;28;19908;-59
2022/07/24 10:01:33;;;;;;;;;;;33.60;40.20;;;;;;5073953;28;19919;-58
2022/07/24 10:04:00;;;;;;;;;;;33.40;39.70;;;;;;5074011;28;19909;-58
2022/07/24 10:06:26;;;;;;;;;;;33.40;40.40;;;;;;5071571;28;19912;-59
2022/07/24 10:08:52;;;;;;;;;;;33.40;39.80;;;;;;5076213;28;19942;-59
2022/07/24 10:11:18;;;;;;;;;;;33.10;41.10;;;;;;5072070;28;20310;-59
2022/07/24 10:13:44;;;;;;;;;;;33.30;41.40;;;;;;5071842;28;20673;-59
2022/07/24 10:16:13;;;;;;;;;;;33.40;40.20;;;;;;5071568;28;19930;-57
2022/07/24 10:18:49;;;;;;;;;;;33.30;40.40;;;;;;5071333;28;19931;-63
2022/07/24 10:21:25;;;;;;;;;;;33.60;40.50;;;;;;5071122;28;19954;-60
2022/07/24 10:24:09;;;;;;;;;;;33.60;40.00;;;;;;5071777;28;20356;-60
2022/07/24 10:26:40;;;;;;;;;;;33.60;40.10;;;;;;5071735;28;19908;-59
2022/07/24 10:29:11;;;;;;;;;;;33.30;40.70;;;;;;5071444;28;20376;-58
2022/07/24 10:31:37;;;;;;;;;;;33.30;40.40;;;;;;5071884;28;19920;-58
2022/07/24 10:34:04;;;;;;;;;;;33.40;39.70;;;;;;5071634;28;19912;-59
2022/07/24 10:36:32;;;;;;;;;;;33.40;39.30;;;;;;5072615;28;19967;-59
2022/07/24 10:39:00;;;;;;;;;;;33.40;39.30;;;;;;5072369;28;19909;-61
2022/07/24 10:41:26;;;;;;;;;;;33.60;40.00;;;;;;5080793;28;20260;-59
2022/07/24 10:44:10;;;;;;;;;;;33.80;39.10;;;;;;5077427;28;19962;-60
2022/07/24 10:46:55;;;;;;;;;;;33.80;38.40;;;;;;5072477;28;19913;-61
2022/07/24 10:49:35;;;;;;;;;;;33.80;39.10;;;;;;5072272;28;20494;-62
2022/07/24 10:52:01;;;;;;;;;;;34.00;39.00;;;;;;5071253;28;20019;-60
2022/07/24 10:54:27;;;;;;;;;;;34.00;38.30;;;;;;5072252;28;19947;-58
2022/07/24 10:56:53;;;;;;;;;;;34.10;38.10;;;;;;5075751;28;19922;-58
2022/07/24 10:59:32;;;;;;;;;;;34.20;37.30;;;;;;5081504;28;19908;-57
2022/07/24 11:02:17;;;;;;;;;;;34.20;37.30;;;;;;5086992;28;20391;-59
2022/07/24 11:04:43;;;;;;;;;;;34.20;37.50;;;;;;5084517;28;19912;-57
2022/07/24 11:07:10;;;;;;;;;;;34.20;36.70;;;;;;5080817;28;20029;-60
2022/07/24 11:09:56;;;;;;;;;;;34.10;37.10;;;;;;5080178;28;19908;-59
2022/07/24 11:12:32;;;;;;;;;;;34.30;37.10;;;;;;5070759;28;20445;-60
2022/07/24 11:15:53;;;;;;;;;;;34.20;36.70;;;;;;5085028;28;19994;-59
2022/07/24 11:17:45;;;;;;;;;;;34.10;36.60;;;;;;5071125;28;19962;-59
2022/07/24 11:20:12;;;;;;;;;;;34.20;36.70;;;;;;5071025;28;19917;-59
2022/07/24 11:22:39;;;;;;;;;;;34.30;36.30;;;;;;5071074;28;20349;-58
2022/07/24 11:25:06;;;;;;;;;;;34.50;35.80;;;;;;5070802;28;20291;-58
2022/07/24 11:27:41;;;;;;;;;;;34.60;36.00;;;;;;5079831;28;19916;-60
2022/07/24 11:30:06;;;;;;;;;;;34.50;35.80;;;;;;5084268;28;19916;-59
2022/07/24 11:32:32;;;;;;;;;;;34.50;35.80;;;;;;5089565;28;19916;-59
2022/07/24 11:34:59;;;;;;;;;;;34.50;35.30;;;;;;5090002;28;19991;-60
2022/07/24 11:37:29;;;;;;;;;;;34.70;35.30;;;;;;5083269;28;19967;-67
2022/07/24 11:39:54;;;;;;;;;;;34.80;35.90;;;;;;5085300;28;19954;-59
2022/07/24 11:42:20;;;;;;;;;;;34.80;35.40;;;;;;5082700;28;19954;-60
2022/07/24 11:44:47;;;;;;;;;;;35.00;34.50;;;;;;5086137;28;19915;-60
2022/07/24 11:47:14;;;;;;;;;;;34.90;33.60;;;;;;5087463;28;19912;-64
2022/07/24 11:49:44;;;;;;;;;;;34.80;34.10;;;;;;5092040;28;19909;-62
2022/07/24 11:52:13;;;;;;;;;;;34.80;34.20;;;;;;5091287;28;19940;-63
2022/07/24 11:54:39;;;;;;;;;;;34.70;34.80;;;;;;5081913;28;19914;-63
2022/07/24 11:57:05;;;;;;;;;;;34.80;34.50;;;;;;5086794;28;19974;-62
2022/07/24 11:59:31;;;;;;;;;;;34.70;33.90;;;;;;5089940;28;20536;-60
2022/07/24 12:02:04;;;;;;;;;;;34.80;34.50;;;;;;5090710;28;19916;-62
2022/07/24 12:04:30;;;;;;;;;;;34.70;34.00;;;;;;5082453;28;19962;-64
2022/07/24 12:06:56;;;;;;;;;;;34.80;33.90;;;;;;5087340;28;20355;-60
2022/07/24 12:09:22;;;;;;;;;;;34.90;34.00;;;;;;5089916;28;20036;-59
2022/07/24 12:11:47;;;;;;;;;;;34.90;33.60;;;;;;5089935;28;19908;-60
2022/07/24 12:14:15;;;;;;;;;;;34.70;32.90;;;;;;5089274;28;19912;-59
2022/07/24 12:16:41;;;;;;;;;;;34.70;33.00;;;;;;5083004;28;19924;-58
2022/07/24 12:19:16;;;;;;;;;;;34.50;33.30;;;;;;5088118;28;19915;-58
2022/07/24 12:21:45;;;;;;;;;;;34.50;33.70;;;;;;5088305;28;19916;-58
2022/07/24 12:24:11;;;;;;;;;;;34.70;33.00;;;;;;5084900;28;19994;-59
2022/07/24 12:26:52;;;;;;;;;;;34.80;32.70;;;;;;5087025;28;20311;-58
2022/07/24 12:29:18;;;;;;;;;;;34.80;32.40;;;;;;5082133;28;19915;-59
2022/07/24 12:31:43;;;;;;;;;;;34.80;32.50;;;;;;5084674;28;19912;-60
2022/07/24 12:34:09;;;;;;;;;;;35.00;32.00;;;;;;5073538;28;19912;-60
2022/07/24 12:36:36;;;;;;;;;;;34.90;32.40;;;;;;5086481;28;20481;-59
2022/07/24 12:39:04;;;;;;;;;;;34.90;32.20;;;;;;5072923;28;19931;-59
2022/07/24 12:41:30;;;;;;;;;;;34.80;32.30;;;;;;5081777;28;20334;-58
2022/07/24 12:43:57;;;;;;;;;;;34.90;32.40;;;;;;5078280;28;20248;-60
2022/07/24 12:46:24;;;;;;;;;;;35.10;32.10;;;;;;5072495;28;20283;-59
2022/07/24 12:48:57;;;;;;;;;;;35.30;31.60;;;;;;5073394;28;20253;-62
2022/07/24 12:51:23;;;;;;;;;;;35.40;31.90;;;;;;5073249;28;19913;-59
2022/07/24 12:53:52;;;;;;;;;;;35.30;31.50;;;;;;5073281;28;20003;-60
2022/07/24 12:56:17;;;;;;;;;;;35.30;31.50;;;;;;5073293;28;19927;-59
2022/07/24 12:59:02;;;;;;;;;;;35.30;31.90;;;;;;5073027;28;19912;-58
2022/07/24 13:01:29;;;;;;;;;;;35.30;31.70;;;;;;5073087;28;19966;-60
2022/07/24 13:03:56;;;;;;;;;;;35.20;31.60;;;;;;5072580;28;19954;-58
2022/07/24 13:06:31;;;;;;;;;;;35.10;31.50;;;;;;5071787;28;19924;-59
2022/07/24 13:08:57;;;;;;;;;;;35.10;31.70;;;;;;5071935;28;19909;-58
2022/07/24 13:11:22;;;;;;;;;;;35.20;31.60;;;;;;5074574;28;19909;-59
2022/07/24 13:13:48;;;;;;;;;;;35.20;31.70;;;;;;5073231;28;20437;-59
2022/07/24 13:16:13;;;;;;;;;;;35.20;32.40;;;;;;5071013;28;20267;-60
2022/07/24 13:18:39;;;;;;;;;;;35.20;32.00;;;;;;5071278;28;19967;-60
2022/07/24 13:21:05;;;;;;;;;;;35.10;32.80;;;;;;5072854;28;19916;-59
2022/07/24 13:23:30;;;;;;;;;;;35.20;32.20;;;;;;5072661;28;20008;-59
2022/07/24 13:25:56;;;;;;;;;;;35.30;32.10;;;;;;5072863;28;19936;-59
2022/07/24 13:28:21;;;;;;;;;;;35.30;32.30;;;;;;5073012;28;19913;-59
2022/07/24 13:30:47;;;;;;;;;;;35.30;32.00;;;;;;5071689;28;19905;-59
2022/07/24 13:33:12;;;;;;;;;;;35.30;32.00;;;;;;5071543;28;19917;-58
2022/07/24 13:35:38;;;;;;;;;;;35.40;32.10;;;;;;5072729;28;19913;-59
2022/07/24 13:38:03;;;;;;;;;;;35.30;31.80;;;;;;5073222;28;19924;-58
2022/07/24 13:40:29;;;;;;;;;;;35.50;31.80;;;;;;5073084;28;19916;-59
2022/07/24 13:42:55;;;;;;;;;;;35.50;31.90;;;;;;5093084;28;20402;-59
2022/07/24 13:45:20;;;;;;;;;;;35.60;31.50;;;;;;5088828;28;19915;-60
2022/07/24 13:47:46;;;;;;;;;;;35.60;31.70;;;;;;5073185;28;19923;-57
2022/07/24 13:50:11;;;;;;;;;;;35.50;31.60;;;;;;5072841;28;19946;-59
2022/07/24 13:52:37;;;;;;;;;;;35.40;32.10;;;;;;5072997;28;19908;-60
2022/07/24 13:55:02;;;;;;;;;;;35.40;32.00;;;;;;5072455;28;19920;-59
2022/07/24 13:57:29;;;;;;;;;;;35.50;31.70;;;;;;5070531;28;19923;-60
2022/07/24 13:59:54;;;;;;;;;;;35.60;31.90;;;;;;5069510;28;19969;-59
2022/07/24 14:02:20;;;;;;;;;;;35.70;31.50;;;;;;5071388;28;19963;-61
2022/07/24 14:04:45;;;;;;;;;;;35.90;31.60;;;;;;5071838;28;19946;-65
2022/07/24 14:07:11;;;;;;;;;;;36.10;31.60;;;;;;5071472;28;19917;-57
2022/07/24 14:09:37;;;;;;;;;;;36.00;31.30;;;;;;5069141;28;19912;-60
2022/07/24 14:12:02;;;;;;;;;;;36.00;31.10;;;;;;5071548;28;19912;-62
2022/07/24 14:14:28;;;;;;;;;;;36.00;31.50;;;;;;5071476;28;19940;-58
2022/07/24 14:16:55;;;;;;;;;;;36.00;31.30;;;;;;5071628;28;19921;-58